Time;durP1;ratioP1;P1;durP2;ratioP2;P2;SDS_P1;SDS_P2;PMS_P1;PMS_P2;Temp;Humidity;BMP_temperature;BMP_pressure;BME280_temperature;BME280_humidity;BME280_pressure;Samples;Min_cycle;Max_cycle;Signal;HPM_P1;HPM_P2
2021/01/13 00:03:18;;;;;;;28.05;13.23;;;;;;;;;;6106386;23;20028;-93
2021/01/13 00:17:11;;;;;;;29.48;12.05;;;;;;;;;;6145592;23;20063;-90
2021/01/13 00:20:58;;;;;;;25.58;11.02;;;;;;;;;;6156109;22;20024;-92
2021/01/13 00:24:04;;;;;;;24.17;11.32;;;;;;;;;;6224701;23;20012;-93
2021/01/13 00:27:14;;;;;;;26.02;11.57;;;;;;;;;;6240039;23;20024;-92
2021/01/13 00:31:26;;;;;;;28.05;11.82;;;;;;;;;;6181783;23;20055;-92
2021/01/13 00:35:11;;;;;;;23.35;11.98;;;;;;;;;;6150164;23;20044;-93
2021/01/13 00:38:27;;;;;;;28.58;12.27;;;;;;;;;;6059836;23;20006;-92
2021/01/13 00:49:45;;;;;;;;;;;;;;;;;;;;;
2021/01/13 00:54:07;;;;;;;26.65;11.70;;;;;;;;;;6308176;22;20030;-93
2021/01/13 00:58:26;;;;;;;26.67;14.80;;;;;;;;;;6245439;22;20033;-93
2021/01/13 01:01:44;;;;;;;25.38;11.73;;;;;;;;;;6248451;22;20020;-93
2021/01/13 01:12:50;;;;;;;28.73;12.95;;;;;;;;;;6124073;23;20010;-92
2021/01/13 01:50:29;;;;;;;27.73;13.63;;;1.80;99.90;;;;;;6191072;22;20020;-92
2021/01/13 02:05:13;;;;;;;;;;;;;;;;;;;;;
2021/01/13 02:15:27;;;;;;;29.88;14.30;;;;;;;;;;6239270;22;20032;-92
2021/01/13 03:08:21;;;;;;;24.08;11.73;;;;;;;;;;6245941;22;20047;-93
2021/01/13 03:12:22;;;;;;;25.13;12.40;;;;;;;;;;6197935;23;20050;-92
2021/01/13 03:20:46;;;;;;;29.88;12.43;;;;;;;;;;6227602;22;20022;-91
2021/01/13 03:31:18;;;;;;;24.50;11.32;;;;;;;;;;6272692;22;20059;-93
2021/01/13 03:35:13;;;;;;;23.30;10.73;;;;;;;;;;6224455;23;20056;-92
2021/01/13 04:02:26;;;;;;;;;;;;;;;;;;;;;
2021/01/13 04:06:20;;;;;;;24.33;10.23;;;;;;;;;;6250458;22;20034;-93
2021/01/13 04:10:36;;;;;;;25.88;11.85;;;;;;;;;;6220042;22;20085;-93
2021/01/13 04:13:58;;;;;;;24.55;10.18;;;;;;;;;;6161392;23;20020;-92
2021/01/13 04:22:27;;;;;;;21.40;9.27;;;3.00;99.90;;;;;;6161661;23;20005;-92
2021/01/13 04:25:58;;;;;;;23.75;7.32;;;;;;;;;;6099230;23;20064;-93
2021/01/13 04:29:17;;;;;;;18.13;8.43;;;;;;;;;;6147195;23;20021;-93
2021/01/13 04:33:19;;;;;;;21.60;9.45;;;;;;;;;;6149284;23;20014;-91
2021/01/13 04:36:49;;;;;;;22.02;8.38;;;;;;;;;;6157480;23;20030;-93
2021/01/13 04:40:39;;;;;;;17.70;7.10;;;;;;;;;;6148384;23;20024;-92
2021/01/13 04:45:08;;;;;;;27.35;7.78;;;3.30;99.90;;;;;;6172405;23;20029;-93
2021/01/13 04:48:59;;;;;;;19.08;7.70;;;;;;;;;;6215778;23;20052;-92
2021/01/13 04:52:28;;;;;;;18.52;7.10;;;;;;;;;;6225107;23;20044;-92
2021/01/13 04:55:59;;;;;;;16.38;7.38;;;;;;;;;;6191517;23;20103;-92
2021/01/13 04:59:05;;;;;;;18.00;8.25;;;;;;;;;;6190535;23;20035;-93
2021/01/13 05:02:17;;;;;;;15.35;6.88;;;;;;;;;;6191779;23;20004;-92
2021/01/13 05:09:14;;;;;;;10.73;5.95;;;;;;;;;;6231869;23;20021;-92
2021/01/13 05:13:08;;;;;;;17.67;5.57;;;3.40;99.90;;;;;;6250701;23;20016;-91
2021/01/13 05:23:52;;;;;;;14.35;6.50;;;;;;;;;;6171619;23;20061;-93
2021/01/13 05:35:27;;;;;;;10.68;5.43;;;;;;;;;;6217286;22;20008;-93
2021/01/13 05:38:43;;;;;;;;;;;3.60;99.90;;;;;;6259247;22;20020;-94
2021/01/13 05:48:42;;;;;;;15.35;6.18;;;;;;;;;;6272897;22;20063;-91
2021/01/13 05:56:22;;;;;;;17.67;6.20;;;3.80;99.90;;;;;;6238602;23;20026;-92
2021/01/13 06:00:28;;;;;;;14.30;5.72;;;3.80;99.90;;;;;;6227624;22;20084;-92
2021/01/13 06:04:27;;;;;;;17.48;6.05;;;;;;;;;;6284183;22;20072;-91
2021/01/13 06:07:51;;;;;;;18.75;6.40;;;;;;;;;;6191376;22;20055;-91
2021/01/13 06:11:38;;;;;;;15.45;6.63;;;;;;;;;;6272406;22;20048;-93
2021/01/13 06:32:41;;;;;;;23.08;10.73;;;4.10;99.90;;;;;;6208920;23;20015;-91
2021/01/13 06:37:00;;;;;;;23.38;11.20;;;;;;;;;;6065963;23;20078;-92
2021/01/13 06:40:59;;;;;;;22.52;11.77;;;;;;;;;;6223219;22;20075;-92
2021/01/13 06:44:25;;;;;;;31.27;13.55;;;;;;;;;;6276738;22;20068;-91
2021/01/13 06:47:53;;;;;;;31.02;12.48;;;;;;;;;;6244942;23;20059;-91
2021/01/13 06:51:18;;;;;;;31.23;12.90;;;;;;;;;;6270190;22;20064;-91
2021/01/13 06:54:42;;;;;;;28.35;14.93;;;4.30;99.90;;;;;;6269147;22;20055;-91
2021/01/13 06:57:37;;;;;;;25.17;12.07;;;;;;;;;;6247356;23;20076;-91
2021/01/13 07:00:58;;;;;;;25.52;12.43;;;;;;;;;;6248799;22;20087;-91
2021/01/13 07:03:56;;;;;;;34.85;15.10;;;;;;;;;;6270431;23;20056;-92
2021/01/13 07:07:43;;;;;;;26.05;13.32;;;4.60;99.90;;;;;;6270671;23;20072;-90
2021/01/13 07:10:30;;;;;;;38.10;14.75;;;;;;;;;;6243894;23;20071;-91
2021/01/13 07:13:22;;;;;;;28.00;12.88;;;;;;;;;;6247133;23;20087;-91
2021/01/13 07:17:01;;;;;;;23.40;13.80;;;;;;;;;;6270237;22;20071;-94
2021/01/13 07:20:00;;;;;;;29.52;15.30;;;;;;;;;;6261316;23;20008;-92
2021/01/13 07:23:44;;;;;;;29.50;12.48;;;;;;;;;;6281279;23;20076;-90
2021/01/13 07:27:06;;;;;;;24.92;14.68;;;;;;;;;;6246499;23;20004;-92
2021/01/13 07:31:37;;;;;;;32.92;15.65;;;4.70;99.90;;;;;;6257948;22;20111;-93
2021/01/13 07:34:38;;;;;;;28.05;15.07;;;;;;;;;;6191177;23;20017;-91
2021/01/13 07:41:54;;;;;;;30.73;15.50;;;;;;;;;;6240876;23;20019;-93
2021/01/13 07:44:58;;;;;;;35.35;15.95;;;;;;;;;;6222840;23;20035;-92
2021/01/13 07:52:01;;;;;;;32.03;14.70;;;;;;;;;;6191202;23;20035;-91
2021/01/13 07:55:15;;;;;;;29.77;15.15;;;;;;;;;;6169498;23;20018;-91
2021/01/13 07:58:34;;;;;;;32.65;16.10;;;;;;;;;;6203936;23;20007;-93
2021/01/13 08:02:03;;;;;;;35.35;16.83;;;;;;;;;;6153295;23;20009;-91
2021/01/13 08:05:09;;;;;;;29.10;14.98;;;;;;;;;;6152125;23;20035;-92
2021/01/13 08:08:04;;;;;;;37.42;16.90;;;;;;;;;;6178470;23;20024;-91
2021/01/13 08:12:27;;;;;;;37.22;16.15;;;5.20;99.90;;;;;;6212691;23;20013;-88
2021/01/13 08:15:19;;;;;;;35.90;18.00;;;;;;;;;;6200286;23;20021;-89
2021/01/13 08:18:12;;;;;;;32.72;14.98;;;;;;;;;;6172686;23;20031;-89
2021/01/13 08:21:22;;;;;;;36.90;14.43;;;5.30;99.90;;;;;;6168063;23;20015;-88
2021/01/13 08:24:29;;;;;;;38.30;17.15;;;5.30;99.90;;;;;;6131932;23;20009;-90
2021/01/13 08:27:38;;;;;;;37.35;17.05;;;;;;;;;;6161432;23;20023;-91
2021/01/13 08:30:17;;;;;;;33.20;14.35;;;;;;;;;;6176165;23;20036;-87
2021/01/13 08:32:48;;;;;;;34.22;16.70;;;;;;;;;;6165681;23;20028;-89
2021/01/13 08:39:07;;;;;;;45.92;31.55;;;;;;;;;;6268275;22;20008;-88
2021/01/13 08:41:36;;;;;;;35.20;18.52;;;5.60;99.90;;;;;;6195209;23;20467;-90
2021/01/13 08:44:18;;;;;;;36.17;16.98;;;5.60;99.90;;;;;;6197149;23;20031;-90
2021/01/13 08:46:49;;;;;;;43.00;18.80;;;;;;;;;;6217598;23;20031;-90
2021/01/13 08:49:27;;;;;;;30.40;15.23;;;5.70;99.90;;;;;;6198062;23;20020;-89
2021/01/13 08:52:11;;;;;;;42.65;16.45;;;;;;;;;;6234442;23;20012;-87
2021/01/13 08:54:39;;;;;;;29.70;15.95;;;;;;;;;;6236048;23;20020;-90
2021/01/13 08:57:09;;;;;;;33.65;17.55;;;5.80;99.90;;;;;;6225210;23;20022;-90
2021/01/13 08:59:47;;;;;;;37.33;17.30;;;;;;;;;;6221579;23;20031;-90
2021/01/13 09:02:17;;;;;;;30.83;16.35;;;5.80;99.90;;;;;;6196189;23;20031;-90
2021/01/13 09:04:53;;;;;;;31.42;16.27;;;;;;;;;;6196674;23;20026;-90
2021/01/13 09:07:21;;;;;;;34.88;17.73;;;;;;;;;;6198648;23;20013;-88
2021/01/13 09:09:54;;;;;;;28.85;15.20;;;;;;;;;;6197386;23;20024;-89
2021/01/13 09:12:39;;;;;;;33.58;16.92;;;;;;;;;;6196631;23;20016;-89
2021/01/13 09:15:08;;;;;;;35.08;15.57;;;;;;;;;;6219749;23;20030;-91
2021/01/13 09:17:40;;;;;;;32.92;14.85;;;;;;;;;;6193872;23;20030;-90
2021/01/13 09:20:13;;;;;;;29.92;16.25;;;;;;;;;;6197500;23;20483;-90
2021/01/13 09:22:44;;;;;;;25.55;13.52;;;;;;;;;;6195963;23;20079;-91
2021/01/13 09:25:16;;;;;;;31.35;15.63;;;;;;;;;;6170491;23;20024;-88
2021/01/13 09:27:51;;;;;;;33.42;17.02;;;;;;;;;;6218343;23;20016;-90
2021/01/13 09:30:29;;;;;;;32.42;15.30;;;;;;;;;;6193709;23;20022;-89
2021/01/13 09:32:58;;;;;;;29.67;13.93;;;;;;;;;;6188931;23;20013;-89
2021/01/13 09:35:30;;;;;;;33.35;17.08;;;;;;;;;;6167138;23;20405;-90
2021/01/13 09:38:01;;;;;;;26.92;15.15;;;6.50;99.90;;;;;;6192096;23;20355;-87
2021/01/13 09:40:49;;;;;;;35.60;17.15;;;6.40;99.90;;;;;;6167538;23;20464;-88
2021/01/13 09:43:31;;;;;;;36.28;17.00;;;;;;;;;;6190432;23;20027;-89
2021/01/13 09:46:01;;;;;;;;;;;6.50;99.90;;;;;;6218691;23;20017;-88
2021/01/13 09:48:32;;;;;;;30.38;15.95;;;6.40;99.90;;;;;;6191425;23;19915;-88
2021/01/13 09:51:10;;;;;;;32.55;15.50;;;6.50;99.90;;;;;;6166214;23;20023;-88
2021/01/13 09:53:49;;;;;;;28.60;15.55;;;6.90;99.90;;;;;;6202757;23;20109;-89
2021/01/13 09:56:17;;;;;;;31.20;16.63;;;;;;;;;;6197892;23;20500;-89
2021/01/13 09:58:46;;;;;;;34.90;17.30;;;;;;;;;;6196987;23;20035;-88
2021/01/13 10:01:21;;;;;;;30.08;14.35;;;6.70;99.90;;;;;;6209170;23;20020;-88
2021/01/13 10:03:54;;;;;;;30.13;15.65;;;;;;;;;;6172989;23;20016;-89
2021/01/13 10:06:27;;;;;;;29.17;16.42;;;6.60;99.90;;;;;;6223125;23;20017;-89
2021/01/13 10:09:21;;;;;;;31.50;16.70;;;;;;;;;;6202832;23;20020;-89
2021/01/13 10:11:56;;;;;;;29.90;14.60;;;;;;;;;;6204938;23;20035;-89
2021/01/13 10:14:24;;;;;;;31.83;16.48;;;;;;;;;;6226122;23;20016;-89
2021/01/13 10:16:52;;;;;;;28.17;14.63;;;;;;;;;;6199485;23;20020;-90
2021/01/13 10:19:27;;;;;;;35.67;16.65;;;6.90;99.90;;;;;;6193871;23;20457;-90
2021/01/13 10:21:57;;;;;;;33.72;16.30;;;;;;;;;;6196604;23;20156;-88
2021/01/13 10:24:27;;;;;;;27.50;14.75;;;;;;;;;;6197690;23;20031;-89
2021/01/13 10:27:00;;;;;;;30.13;14.67;;;;;;;;;;6195285;23;20557;-90
2021/01/13 10:29:33;;;;;;;30.88;13.55;;;;;;;;;;6170776;23;20471;-90
2021/01/13 10:32:02;;;;;;;36.85;18.35;;;;;;;;;;6195662;23;20016;-87
2021/01/13 10:34:35;;;;;;;33.40;15.90;;;;;;;;;;6220375;23;20020;-87
2021/01/13 10:37:03;;;;;;;35.58;17.90;;;;;;;;;;6189680;23;20462;-88
2021/01/13 10:39:31;;;;;;;30.02;16.00;;;;;;;;;;6163490;23;20035;-88
2021/01/13 10:42:07;;;;;;;30.92;15.75;;;;;;;;;;6143339;23;20340;-87
2021/01/13 10:44:35;;;;;;;27.65;13.38;;;;;;;;;;6166111;23;20028;-87
2021/01/13 10:47:08;;;;;;;24.98;13.63;;;;;;;;;;6169691;23;20017;-87
2021/01/13 10:49:40;;;;;;;29.60;17.40;;;;;;;;;;6165720;23;20660;-86
2021/01/13 10:52:13;;;;;;;33.22;13.48;;;;;;;;;;6163875;23;20050;-86
2021/01/13 10:54:47;;;;;;;32.50;14.13;;;7.40;99.90;;;;;;6165095;23;20017;-88
2021/01/13 10:57:17;;;;;;;42.10;19.52;;;;;;;;;;6166726;23;20444;-88
2021/01/13 10:59:46;;;;;;;24.58;13.27;;;;;;;;;;6165507;23;20017;-87
2021/01/13 11:02:16;;;;;;;26.85;13.98;;;7.50;99.90;;;;;;6144109;23;20032;-88
2021/01/13 11:04:46;;;;;;;;;;;7.60;99.90;;;;;;6138954;23;20031;-88
2021/01/13 11:07:16;;;;;;;29.45;14.57;;;;;;;;;;6189024;23;19920;-88
2021/01/13 11:09:55;;;;;;;32.65;18.83;;;;;;;;;;6160922;23;20021;-88
2021/01/13 11:12:26;;;;;;;33.55;15.05;;;;;;;;;;6158686;23;20330;-87
2021/01/13 11:14:56;;;;;;;28.70;13.80;;;7.80;99.90;;;;;;6158356;23;20021;-89
2021/01/13 11:17:25;;;;;;;32.17;15.52;;;;;;;;;;6160531;23;20055;-88
2021/01/13 11:20:01;;;;;;;34.92;17.10;;;;;;;;;;6159069;23;20017;-90
2021/01/13 11:22:44;;;;;;;32.78;16.15;;;;;;;;;;6158421;23;20025;-88
2021/01/13 11:25:41;;;;;;;29.58;13.10;;;7.90;99.90;;;;;;6165531;23;20025;-88
2021/01/13 11:28:11;;;;;;;27.75;12.18;;;;;;;;;;6159165;23;20032;-88
2021/01/13 11:30:44;;;;;;;30.67;14.82;;;;;;;;;;6187692;23;20017;-88
2021/01/13 11:33:16;;;;;;;29.55;14.43;;;8.10;99.90;;;;;;6186575;23;20017;-88
2021/01/13 11:35:49;;;;;;;43.40;16.33;;;;;;;;;;6166703;23;20032;-89
2021/01/13 11:38:24;;;;;;;29.42;12.57;;;;;;;;;;6164009;23;20020;-90
2021/01/13 11:41:10;;;;;;;28.73;14.38;;;8.00;99.90;;;;;;6160731;23;20021;-88
2021/01/13 11:44:21;;;;;;;24.02;11.52;;;8.00;99.90;;;;;;6159278;23;20025;-89
2021/01/13 11:46:59;;;;;;;35.83;15.82;;;;;;;;;;6150801;23;20013;-89
2021/01/13 11:49:29;;;;;;;23.73;12.13;;;;;;;;;;6131096;23;20060;-89
2021/01/13 11:52:06;;;;;;;26.52;13.23;;;;;;;;;;6152987;23;20342;-89
2021/01/13 11:54:35;;;;;;;27.55;13.10;;;;;;;;;;6130657;23;20021;-89
2021/01/13 11:57:18;;;;;;;28.52;13.73;;;;;;;;;;6153676;23;20021;-87
2021/01/13 11:59:47;;;;;;;24.83;13.00;;;;;;;;;;6180111;23;20028;-88
2021/01/13 12:02:18;;;;;;;29.83;13.70;;;;;;;;;;6156213;23;20057;-88
2021/01/13 12:04:48;;;;;;;29.20;14.52;;;;;;;;;;6185495;23;20021;-88
2021/01/13 12:07:19;;;;;;;28.15;14.55;;;;;;;;;;6107116;23;20529;-87
2021/01/13 12:10:14;;;;;;;28.63;15.32;;;;;;;;;;6157446;23;20286;-88
2021/01/13 12:12:47;;;;;;;26.35;14.35;;;;;;;;;;6157377;23;20725;-88
2021/01/13 12:15:20;;;;;;;28.73;15.25;;;;;;;;;;6132427;23;20032;-89
2021/01/13 12:17:53;;;;;;;28.33;13.70;;;;;;;;;;6155157;23;20021;-89
2021/01/13 12:20:36;;;;;;;26.90;14.45;;;;;;;;;;6157500;23;20028;-88
2021/01/13 12:23:31;;;;;;;27.50;13.82;;;;;;;;;;6130070;23;20028;-87
2021/01/13 12:26:19;;;;;;;27.30;13.23;;;;;;;;;;6178258;23;20025;-87
2021/01/13 12:29:18;;;;;;;27.77;12.85;;;;;;;;;;6159484;23;20021;-89
2021/01/13 12:31:49;;;;;;;27.50;13.95;;;;;;;;;;6159144;23;20031;-87
2021/01/13 12:34:24;;;;;;;27.48;12.63;;;8.60;99.90;;;;;;6158188;23;20016;-88
2021/01/13 12:36:54;;;;;;;27.55;14.98;;;;;;;;;;6164193;23;20031;-88
2021/01/13 12:39:29;;;;;;;25.25;14.00;;;8.70;99.90;;;;;;6187571;23;20017;-88
2021/01/13 12:42:00;;;;;;;23.65;12.90;;;8.60;99.90;;;;;;6188936;23;20055;-89
2021/01/13 12:44:37;;;;;;;34.47;14.05;;;8.50;99.90;;;;;;6216170;23;20020;-87
2021/01/13 12:47:12;;;;;;;25.80;13.35;;;;;;;;;;6192087;23;20017;-88
2021/01/13 12:49:42;;;;;;;25.85;12.30;;;;;;;;;;6216018;23;20029;-88
2021/01/13 12:52:11;;;;;;;25.95;14.13;;;;;;;;;;6190209;23;20027;-87
2021/01/13 12:54:38;;;;;;;27.10;13.85;;;;;;;;;;6216802;23;20021;-88
2021/01/13 12:57:08;;;;;;;25.42;13.38;;;;;;;;;;6216126;23;20047;-87
2021/01/13 12:59:43;;;;;;;21.42;11.15;;;9.00;99.90;;;;;;6218340;23;20608;-88
2021/01/13 13:02:27;;;;;;;24.02;12.27;;;;;;;;;;6192275;23;20025;-88
2021/01/13 13:04:56;;;;;;;22.40;10.20;;;;;;;;;;6166170;23;20021;-89
2021/01/13 13:07:25;;;;;;;19.23;10.25;;;;;;;;;;6222322;23;20433;-89
2021/01/13 13:09:55;;;;;;;18.63;9.20;;;;;;;;;;6218987;23;20030;-93
2021/01/13 13:12:24;;;;;;;22.08;10.70;;;;;;;;;;6193991;23;20019;-90
2021/01/13 13:14:54;;;;;;;17.30;9.07;;;;;;;;;;6187347;23;20036;-89
2021/01/13 13:17:24;;;;;;;19.90;10.63;;;;;;;;;;6189464;23;20021;-89
2021/01/13 13:19:52;;;;;;;19.92;9.18;;;;;;;;;;6190033;23;20040;-88
2021/01/13 13:22:22;;;;;;;19.52;10.05;;;;;;;;;;6191711;23;20016;-87
2021/01/13 13:24:56;;;;;;;18.85;9.88;;;;;;;;;;6166881;23;20032;-89
2021/01/13 13:27:25;;;;;;;21.85;10.77;;;;;;;;;;6219706;23;20024;-90
2021/01/13 13:29:58;;;;;;;20.77;10.18;;;;;;;;;;6193891;23;20023;-87
2021/01/13 13:32:39;;;;;;;19.63;10.50;;;9.50;99.90;;;;;;6200575;23;20027;-88
2021/01/13 13:35:07;;;;;;;20.02;10.18;;;;;;;;;;6198555;23;20041;-89
2021/01/13 13:37:36;;;;;;;18.40;9.80;;;9.40;99.90;;;;;;6186081;23;20046;-88
2021/01/13 13:40:04;;;;;;;20.33;10.05;;;9.40;99.90;;;;;;6165281;23;20020;-89
2021/01/13 13:42:38;;;;;;;23.40;10.63;;;;;;;;;;6164746;23;20032;-89
2021/01/13 13:45:07;;;;;;;21.08;11.10;;;;;;;;;;6188245;23;20036;-89
2021/01/13 13:47:38;;;;;;;17.48;9.85;;;;;;;;;;6224023;23;20170;-89
2021/01/13 13:50:06;;;;;;;17.17;9.75;;;;;;;;;;6230286;23;20021;-88
2021/01/13 13:52:33;;;;;;;19.38;10.23;;;;;;;;;;6198295;23;20024;-88
2021/01/13 13:55:01;;;;;;;17.83;9.15;;;;;;;;;;6192204;23;20028;-87
2021/01/13 13:57:30;;;;;;;24.67;10.25;;;;;;;;;;6211972;23;20030;-88
2021/01/13 14:00:00;;;;;;;25.25;12.32;;;;;;;;;;6186028;23;20016;-88
2021/01/13 14:02:28;;;;;;;22.83;12.40;;;;;;;;;;6189983;23;20021;-87
2021/01/13 14:04:55;;;;;;;22.75;12.23;;;;;;;;;;6185316;23;20073;-89
2021/01/13 14:07:36;;;;;;;20.55;10.60;;;;;;;;;;5068499;27;20422;-91
2021/01/13 14:10:08;;;;;;;21.77;11.20;;;9.60;99.90;;;;;;5085592;28;20052;-90
2021/01/13 14:12:40;;;;;;;22.75;10.88;;;;;;;;;;5043385;28;20049;-88
2021/01/13 14:15:09;;;;;;;24.00;12.45;;;9.80;99.90;;;;;;5064317;28;20041;-89
2021/01/13 14:17:38;;;;;;;25.77;11.75;;;;;;;;;;5062343;28;20064;-90
2021/01/13 14:20:06;;;;;;;23.73;13.07;;;9.80;99.90;;;;;;5065461;28;20420;-89
2021/01/13 14:22:34;;;;;;;24.90;10.60;;;9.90;99.90;;;;;;5063149;28;20053;-90
2021/01/13 14:25:04;;;;;;;23.73;12.25;;;;;;;;;;5065306;28;20434;-88
2021/01/13 14:27:47;;;;;;;22.65;11.32;;;9.90;99.90;;;;;;5066434;28;20056;-87
2021/01/13 14:30:18;;;;;;;23.80;10.70;;;;;;;;;;5075170;28;20048;-96
2021/01/13 14:32:56;;;;;;;18.30;11.33;;;;;;;;;;5096453;28;20049;-90
2021/01/13 14:39:02;;;;;;;24.58;12.52;;;;;;;;;;5077212;28;20045;-90
2021/01/13 14:42:26;;;;;;;23.27;11.32;;;;;;;;;;5117493;28;20032;-92
2021/01/13 14:44:59;;;;;;;21.00;10.40;;;;;;;;;;5103454;28;20048;-92
2021/01/13 14:47:36;;;;;;;20.50;10.23;;;;;;;;;;5115923;27;20096;-95
2021/01/13 14:50:47;;;;;;;23.55;12.68;;;;;;;;;;5046602;27;20052;-94
2021/01/13 14:53:39;;;;;;;24.23;11.25;;;;;;;;;;5118845;22;20025;-89
2021/01/13 14:56:09;;;;;;;28.83;12.10;;;;;;;;;;5046571;28;20057;-88
2021/01/13 14:58:41;;;;;;;20.40;12.57;;;;;;;;;;5071813;22;20060;-90
2021/01/13 15:05:48;;;;;;;21.27;9.95;;;10.20;99.90;;;;;;5037638;28;20053;-94
2021/01/13 15:08:21;;;;;;;27.15;10.15;;;;;;;;;;4993988;28;20049;-94
2021/01/13 15:11:11;;;;;;;22.58;8.55;;;;;;;;;;5034808;28;20049;-95
2021/01/13 15:13:46;;;;;;;15.85;8.65;;;;;;;;;;5003140;28;20045;-91
2021/01/13 15:16:19;;;;;;;17.00;9.85;;;;;;;;;;5048598;28;20056;-93
2021/01/13 15:18:53;;;;;;;19.95;9.43;;;;;;;;;;5024321;28;20050;-93
2021/01/13 15:21:40;;;;;;;23.77;9.20;;;;;;;;;;4984246;28;20046;-91
2021/01/13 15:24:39;;;;;;;20.60;9.05;;;;;;;;;;5013351;28;20054;-91
2021/01/13 15:27:18;;;;;;;19.27;10.40;;;;;;;;;;5011825;28;20053;-92
2021/01/13 15:29:46;;;;;;;17.70;9.85;;;;;;;;;;4985807;28;20061;-91
2021/01/13 15:32:19;;;;;;;16.95;8.38;;;;;;;;;;5009655;28;20525;-91
2021/01/13 15:35:21;;;;;;;14.80;7.22;;;;;;;;;;4987612;28;20048;-89
2021/01/13 15:38:42;;;;;;;18.98;8.57;;;10.30;99.90;;;;;;5005316;28;20053;-93
2021/01/13 15:41:41;;;;;;;17.23;8.75;;;;;;;;;;4979759;28;20054;-91
2021/01/13 15:44:41;;;;;;;16.52;8.05;;;10.30;99.90;;;;;;4975160;28;20054;-92
2021/01/13 15:47:48;;;;;;;20.52;9.50;;;10.30;99.90;;;;;;5005460;28;20058;-89
2021/01/13 15:50:39;;;;;;;15.75;9.55;;;;;;;;;;4997829;28;20137;-90
2021/01/13 15:53:49;;;;;;;20.40;9.52;;;;;;;;;;4991166;28;20057;-93
2021/01/13 15:56:21;;;;;;;18.75;9.55;;;;;;;;;;5083362;23;20064;-93
2021/01/13 15:59:05;;;;;;;19.27;10.07;;;;;;;;;;5066536;28;20052;-87
2021/01/13 16:02:10;;;;;;;20.92;10.63;;;;;;;;;;5054497;28;20055;-91
2021/01/13 16:04:51;;;;;;;19.58;9.57;;;;;;;;;;5055155;28;20025;-91
2021/01/13 16:07:40;;;;;;;18.67;10.40;;;;;;;;;;5032428;28;20055;-91
2021/01/13 16:10:21;;;;;;;20.73;9.30;;;;;;;;;;5090762;28;20044;-91
2021/01/13 16:13:25;;;;;;;20.23;10.82;;;10.30;99.90;;;;;;5074369;28;20051;-92
2021/01/13 16:16:02;;;;;;;23.38;12.45;;;;;;;;;;5061887;28;20518;-89
2021/01/13 16:18:31;;;;;;;21.38;10.63;;;;;;;;;;5064693;28;20052;-90
2021/01/13 16:21:02;;;;;;;21.25;10.70;;;;;;;;;;5032866;28;20134;-91
2021/01/13 16:23:37;;;;;;;20.80;11.48;;;;;;;;;;5046560;28;20055;-93
2021/01/13 16:26:07;;;;;;;24.75;11.77;;;;;;;;;;5046848;28;20408;-92
2021/01/13 16:28:48;;;;;;;18.42;9.13;;;;;;;;;;5048349;28;20048;-93
2021/01/13 16:31:19;;;;;;;22.42;11.68;;;;;;;;;;5040182;28;20048;-93
2021/01/13 16:33:56;;;;;;;20.98;10.27;;;;;;;;;;5030803;28;20049;-94
2021/01/13 16:36:35;;;;;;;24.50;12.63;;;;;;;;;;5039344;28;20048;-93
2021/01/13 16:39:04;;;;;;;28.73;13.27;;;;;;;;;;5036824;28;20361;-92
2021/01/13 16:41:45;;;;;;;25.48;12.88;;;10.20;99.90;;;;;;5043341;28;20049;-92
2021/01/13 16:44:22;;;;;;;28.30;15.45;;;;;;;;;;5035119;28;20040;-92
2021/01/13 16:46:50;;;;;;;29.30;15.75;;;;;;;;;;5031250;28;21157;-93
2021/01/13 16:49:19;;;;;;;24.70;13.30;;;;;;;;;;5035277;28;20048;-94
2021/01/13 16:52:02;;;;;;;29.58;16.70;;;10.30;99.90;;;;;;5046294;28;20048;-91
2021/01/13 16:54:31;;;;;;;28.60;16.17;;;;;;;;;;5058352;28;20045;-93
2021/01/13 16:57:02;;;;;;;26.08;14.57;;;;;;;;;;5004707;28;20060;-93
2021/01/13 16:59:34;;;;;;;28.65;14.15;;;;;;;;;;5004678;28;20045;-92
2021/01/13 17:02:06;;;;;;;25.90;13.23;;;;;;;;;;5033002;28;20049;-93
2021/01/13 17:04:36;;;;;;;28.85;14.57;;;;;;;;;;5033095;28;20047;-94
2021/01/13 17:07:06;;;;;;;28.08;14.35;;;;;;;;;;5046570;28;20249;-92
2021/01/13 17:09:37;;;;;;;27.88;15.38;;;;;;;;;;5048989;28;20045;-93
2021/01/13 17:12:10;;;;;;;25.73;13.85;;;10.10;99.90;;;;;;5064063;28;20055;-93
2021/01/13 17:14:44;;;;;;;27.63;15.45;;;;;;;;;;5063447;28;20041;-92
2021/01/13 17:17:17;;;;;;;26.40;15.90;;;;;;;;;;5033967;28;20057;-93
2021/01/13 17:19:49;;;;;;;28.75;16.02;;;10.00;99.90;;;;;;5041270;28;20049;-93
2021/01/13 17:22:19;;;;;;;29.10;15.43;;;;;;;;;;5058797;28;20049;-94
2021/01/13 17:24:58;;;;;;;31.65;15.88;;;;;;;;;;5052170;28;20049;-94
2021/01/13 17:27:31;;;;;;;31.35;16.63;;;;;;;;;;5049810;28;20059;-93
2021/01/13 17:30:07;;;;;;;33.53;17.38;;;;;;;;;;5031035;28;20044;-93
2021/01/13 17:32:39;;;;;;;47.45;20.27;;;;;;;;;;5041689;28;20057;-94
2021/01/13 17:35:13;;;;;;;36.83;18.88;;;;;;;;;;5066663;28;20052;-93
2021/01/13 17:37:46;;;;;;;37.30;18.42;;;10.20;99.90;;;;;;5061799;28;20080;-93
2021/01/13 17:40:18;;;;;;;33.47;18.25;;;;;;;;;;5036950;28;20508;-91
2021/01/13 17:42:50;;;;;;;30.27;15.52;;;;;;;;;;5037516;28;20049;-92
2021/01/13 17:45:22;;;;;;;28.92;15.68;;;;;;;;;;5039462;28;20060;-91
2021/01/13 17:47:52;;;;;;;28.73;15.88;;;;;;;;;;5022515;28;20049;-96
2021/01/13 17:50:22;;;;;;;37.53;19.25;;;;;;;;;;5045166;28;20056;-94
2021/01/13 17:52:55;;;;;;;31.48;16.17;;;;;;;;;;5054332;28;20045;-94
2021/01/13 17:55:27;;;;;;;31.83;16.33;;;;;;;;;;5043037;28;20053;-93
2021/01/13 17:57:59;;;;;;;34.50;17.17;;;;;;;;;;5032905;28;20045;-93
2021/01/13 18:00:30;;;;;;;34.15;19.20;;;;;;;;;;4999803;28;20148;-94
2021/01/13 18:03:03;;;;;;;34.75;15.00;;;;;;;;;;5036142;28;20049;-94
2021/01/13 18:05:32;;;;;;;32.83;15.82;;;;;;;;;;5036372;28;20041;-92
2021/01/13 18:08:04;;;;;;;38.15;20.02;;;;;;;;;;5033285;28;20060;-93
2021/01/13 18:10:33;;;;;;;35.85;17.92;;;;;;;;;;5047441;28;20048;-92
2021/01/13 18:13:00;;;;;;;35.10;16.35;;;;;;;;;;5016821;28;20064;-92
2021/01/13 18:15:29;;;;;;;32.33;17.77;;;;;;;;;;5022486;28;20124;-93
2021/01/13 18:17:57;;;;;;;34.35;15.55;;;;;;;;;;5040265;28;20539;-93
2021/01/13 18:20:25;;;;;;;35.80;17.15;;;;;;;;;;5017252;28;20053;-92
2021/01/13 18:22:55;;;;;;;32.30;18.52;;;;;;;;;;5039869;28;20061;-94
2021/01/13 18:25:24;;;;;;;32.42;18.02;;;;;;;;;;5030951;28;20075;-94
2021/01/13 18:28:13;;;;;;;30.38;15.23;;;;;;;;;;5012216;28;20045;-94
2021/01/13 18:30:43;;;;;;;29.15;16.63;;;;;;;;;;5004767;28;20053;-93
2021/01/13 18:33:33;;;;;;;36.55;16.65;;;;;;;;;;5036536;28;20041;-91
2021/01/13 18:36:04;;;;;;;28.35;14.10;;;;;;;;;;5036256;28;20064;-92
2021/01/13 18:38:34;;;;;;;33.10;15.45;;;;;;;;;;5054512;28;20472;-92
2021/01/13 18:41:02;;;;;;;30.33;15.30;;;;;;;;;;5038412;28;20049;-93
2021/01/13 18:43:30;;;;;;;46.88;17.25;;;;;;;;;;5041482;28;20056;-92
2021/01/13 18:45:59;;;;;;;29.45;14.95;;;;;;;;;;5031858;28;20041;-91
2021/01/13 18:48:30;;;;;;;28.47;13.00;;;;;;;;;;5035280;28;20052;-93
2021/01/13 18:50:58;;;;;;;26.73;13.80;;;;;;;;;;5041913;28;20060;-92
2021/01/13 18:53:59;;;;;;;27.73;12.93;;;;;;;;;;5070490;28;20040;-91
2021/01/13 18:56:36;;;;;;;29.02;14.75;;;;;;;;;;5047922;28;20052;-91
2021/01/13 18:59:05;;;;;;;33.28;15.75;;;;;;;;;;4998949;28;20085;-92
2021/01/13 19:01:41;;;;;;;38.38;18.20;;;;;;;;;;5029136;28;20057;-93
2021/01/13 19:04:10;;;;;;;33.53;14.32;;;;;;;;;;5062560;22;20065;-92
2021/01/13 19:06:40;;;;;;;31.55;15.23;;;;;;;;;;5058134;28;20045;-92
2021/01/13 19:09:12;;;;;;;32.30;14.07;;;;;;;;;;5039600;28;20080;-93
2021/01/13 19:11:58;;;;;;;28.42;15.13;;;;;;;;;;5041430;28;20064;-92
2021/01/13 19:14:31;;;;;;;26.23;13.52;;;;;;;;;;5040807;28;20049;-92
2021/01/13 19:17:05;;;;;;;36.67;14.80;;;;;;;;;;5026958;28;20060;-92
2021/01/13 19:19:36;;;;;;;34.85;15.93;;;;;;;;;;5025811;28;20053;-95
2021/01/13 19:22:07;;;;;;;32.13;15.30;;;;;;;;;;5027799;28;20052;-92
2021/01/13 19:24:40;;;;;;;34.63;17.23;;;;;;;;;;5054775;28;20049;-91
2021/01/13 19:27:11;;;;;;;;;;;;;;;;;;5032395;28;20049;-94
2021/01/13 19:29:41;;;;;;;38.63;17.80;;;;;;;;;;5024054;28;19920;-93
2021/01/13 19:32:12;;;;;;;32.90;18.60;;;;;;;;;;5039616;28;20048;-93
2021/01/13 19:34:43;;;;;;;31.00;16.92;;;;;;;;;;5061377;28;20049;-92
2021/01/13 19:37:43;;;;;;;31.63;16.55;;;10.30;99.90;;;;;;5062126;28;20040;-93
2021/01/13 19:40:23;;;;;;;30.33;14.15;;;;;;;;;;5075896;28;20162;-95
2021/01/13 19:43:16;;;;;;;31.55;14.57;;;;;;;;;;5059236;28;20049;-95
2021/01/13 19:46:20;;;;;;;32.25;13.85;;;;;;;;;;5086871;28;20032;-93
2021/01/13 19:49:42;;;;;;;28.33;16.17;;;;;;;;;;5088450;28;20045;-94
2021/01/13 19:52:14;;;;;;;23.45;12.77;;;;;;;;;;5081626;28;20049;-93
2021/01/13 19:54:49;;;;;;;29.67;14.88;;;;;;;;;;5085100;28;20051;-93
2021/01/13 19:57:41;;;;;;;31.38;14.38;;;;;;;;;;5076150;28;20035;-94
2021/01/13 20:00:33;;;;;;;34.28;16.98;;;;;;;;;;5075330;28;20070;-95
2021/01/13 20:03:11;;;;;;;31.65;15.75;;;;;;;;;;5084746;28;20048;-92